Time;durP1;ratioP1;P1;durP2;ratioP2;P2;SDS_P1;SDS_P2;PMS_P1;PMS_P2;Temp;Humidity;BMP_temperature;BMP_pressure;BME280_temperature;BME280_humidity;BME280_pressure;Samples;Min_cycle;Max_cycle;Signal;HPM_P1;HPM_P2
2023/01/30 00:00:19;;;;;;;35.95;26.55;;;6.00;99.90;;;;;;5081594;28;20016;-42
2023/01/30 00:02:45;;;;;;;36.78;26.13;;;6.00;99.90;;;;;;5082049;28;20020;-42
2023/01/30 00:05:10;;;;;;;35.60;26.17;;;6.10;99.90;;;;;;5081162;28;20050;-44
2023/01/30 00:07:36;;;;;;;37.67;25.60;;;6.10;99.90;;;;;;5081529;28;20443;-43
2023/01/30 00:10:02;;;;;;;41.28;28.60;;;6.10;99.90;;;;;;5081602;28;20040;-43
2023/01/30 00:12:27;;;;;;;41.65;27.48;;;6.10;99.90;;;;;;5080919;28;20034;-45
2023/01/30 00:14:53;;;;;;;39.58;27.73;;;6.10;99.90;;;;;;5081912;28;20579;-43
2023/01/30 00:17:18;;;;;;;38.38;26.95;;;6.10;99.90;;;;;;5081950;28;20032;-44
2023/01/30 00:19:44;;;;;;;40.38;27.13;;;6.10;99.90;;;;;;5081093;28;20077;-44
2023/01/30 00:22:09;;;;;;;39.00;26.73;;;6.10;99.90;;;;;;5081778;28;20379;-43
2023/01/30 00:24:35;;;;;;;43.05;28.48;;;6.20;99.90;;;;;;5081376;28;20100;-43
2023/01/30 00:27:00;;;;;;;38.85;28.40;;;6.20;99.90;;;;;;5080781;28;20126;-43
2023/01/30 00:29:26;;;;;;;38.30;26.00;;;6.20;99.90;;;;;;5081319;28;20360;-43
2023/01/30 00:31:51;;;;;;;38.88;27.20;;;6.20;99.90;;;;;;5081541;28;20028;-43
2023/01/30 00:34:17;;;;;;;38.53;26.88;;;6.20;99.90;;;;;;5080537;28;20021;-43
2023/01/30 00:36:43;;;;;;;39.58;27.38;;;6.20;99.90;;;;;;5081716;28;20036;-42
2023/01/30 00:39:08;;;;;;;38.47;27.38;;;6.20;99.90;;;;;;5085665;28;20032;-44
2023/01/30 00:47:07;;;;;;;41.45;27.88;;;6.20;99.90;;;;;;5082650;28;20035;-43
2023/01/30 00:49:34;;;;;;;42.30;27.67;;;6.20;99.90;;;;;;5084662;28;20024;-43
2023/01/30 00:51:59;;;;;;;38.92;27.08;;;6.30;99.90;;;;;;5080635;28;20048;-43
2023/01/30 00:54:25;;;;;;;33.47;24.48;;;6.30;99.90;;;;;;5084233;28;20106;-43
2023/01/30 00:56:50;;;;;;;36.85;26.35;;;6.30;99.90;;;;;;5084449;28;20036;-43
2023/01/30 00:59:16;;;;;;;34.55;26.02;;;6.30;99.90;;;;;;5085136;28;20024;-43
2023/01/30 01:01:42;;;;;;;42.95;28.02;;;6.30;99.90;;;;;;5083114;28;20028;-43
2023/01/30 01:04:09;;;;;;;36.65;26.10;;;6.40;99.90;;;;;;5084144;28;20043;-43
2023/01/30 01:06:35;;;;;;;38.70;25.90;;;6.40;99.90;;;;;;5083550;28;20753;-43
2023/01/30 01:09:01;;;;;;;38.00;27.02;;;6.40;99.90;;;;;;5083308;28;20035;-43
2023/01/30 01:11:27;;;;;;;35.40;26.17;;;6.40;99.90;;;;;;5084344;28;20119;-43
2023/01/30 01:13:58;;;;;;;34.58;25.85;;;6.40;99.90;;;;;;5084047;28;20340;-43
2023/01/30 01:16:25;;;;;;;34.45;24.45;;;6.40;99.90;;;;;;5083918;28;20023;-44
2023/01/30 01:18:51;;;;;;;39.72;27.40;;;6.50;99.90;;;;;;5084307;28;20032;-44
2023/01/30 01:21:17;;;;;;;38.72;28.05;;;6.50;99.90;;;;;;5084760;28;20016;-43
2023/01/30 01:23:43;;;;;;;40.28;29.40;;;6.50;99.90;;;;;;5083712;28;20031;-42
2023/01/30 01:26:09;;;;;;;35.97;26.40;;;6.50;99.90;;;;;;5083204;28;20016;-44
2023/01/30 01:28:35;;;;;;;36.03;27.25;;;6.50;99.90;;;;;;5084027;28;20091;-42
2023/01/30 01:31:07;;;;;;;34.28;25.77;;;6.50;99.90;;;;;;5083077;28;20028;-43
2023/01/30 01:33:32;;;;;;;37.92;25.88;;;6.60;99.90;;;;;;5083315;28;20027;-43
2023/01/30 01:35:58;;;;;;;35.95;25.92;;;6.60;99.90;;;;;;5082893;28;20044;-44
2023/01/30 01:38:23;;;;;;;32.38;25.33;;;6.60;99.90;;;;;;5083322;28;20609;-44
2023/01/30 01:41:10;;;;;;;34.22;26.52;;;6.60;99.90;;;;;;5083818;28;20800;-42
2023/01/30 01:43:38;;;;;;;36.95;26.25;;;6.60;99.90;;;;;;5082335;28;20036;-43
2023/01/30 01:46:10;;;;;;;36.25;28.33;;;6.60;99.90;;;;;;5084512;28;20109;-44
2023/01/30 01:48:43;;;;;;;32.92;25.48;;;6.60;99.90;;;;;;5082786;28;20032;-44
2023/01/30 01:51:15;;;;;;;31.90;23.73;;;6.60;99.90;;;;;;5082944;28;20056;-43
2023/01/30 01:53:49;;;;;;;28.80;22.70;;;6.70;99.90;;;;;;5083083;28;20035;-43
2023/01/30 01:56:16;;;;;;;34.95;24.25;;;6.70;99.90;;;;;;5083073;28;20502;-43
2023/01/30 01:58:49;;;;;;;33.83;24.90;;;6.70;99.90;;;;;;5082327;28;20945;-43
2023/01/30 02:01:15;;;;;;;31.15;24.08;;;6.70;99.90;;;;;;5083989;28;20059;-43
2023/01/30 02:03:45;;;;;;;35.63;24.45;;;6.70;99.90;;;;;;5083150;28;20112;-43
2023/01/30 02:06:14;;;;;;;30.90;23.73;;;6.70;99.90;;;;;;5082475;28;20274;-43
2023/01/30 02:08:54;;;;;;;31.58;23.88;;;6.70;99.90;;;;;;5083252;28;20046;-43
2023/01/30 02:11:52;;;;;;;37.83;26.35;;;6.70;99.90;;;;;;5082851;28;20032;-43
2023/01/30 02:14:19;;;;;;;31.35;24.60;;;6.70;99.90;;;;;;5083128;28;20070;-43
2023/01/30 02:16:46;;;;;;;31.40;22.52;;;6.70;99.90;;;;;;5083343;28;20047;-43
2023/01/30 02:19:44;;;;;;;25.98;19.88;;;6.80;99.90;;;;;;5082211;28;20039;-43
2023/01/30 02:22:49;;;;;;;27.92;20.38;;;6.80;99.90;;;;;;5062432;28;20400;-42
2023/01/30 02:25:36;;;;;;;22.58;18.52;;;6.80;99.90;;;;;;5073254;28;20032;-42
2023/01/30 02:28:23;;;;;;;22.85;17.90;;;6.80;99.90;;;;;;5082990;28;20047;-44
2023/01/30 02:31:02;;;;;;;25.52;18.98;;;6.90;99.90;;;;;;5073085;28;20101;-44
2023/01/30 02:34:00;;;;;;;22.63;15.90;;;6.90;99.90;;;;;;5082662;28;20024;-44
2023/01/30 02:36:51;;;;;;;20.45;15.85;;;6.90;99.90;;;;;;5082460;28;20055;-44
2023/01/30 02:39:37;;;;;;;20.23;14.23;;;6.90;99.90;;;;;;5077858;28;20032;-43
2023/01/30 02:42:08;;;;;;;18.33;12.10;;;7.00;99.90;;;;;;5083192;28;20028;-43
2023/01/30 02:44:54;;;;;;;18.73;12.15;;;7.00;99.90;;;;;;5082825;28;20564;-43
2023/01/30 02:47:45;;;;;;;17.55;11.50;;;7.10;99.90;;;;;;5082320;28;20112;-43
2023/01/30 02:50:29;;;;;;;14.82;10.82;;;7.20;99.90;;;;;;5082146;28;20057;-43
2023/01/30 02:52:56;;;;;;;14.30;10.88;;;7.20;99.90;;;;;;5062428;28;20048;-43
2023/01/30 02:55:25;;;;;;;16.30;10.70;;;7.20;99.90;;;;;;5077576;28;20032;-43
2023/01/30 02:57:51;;;;;;;14.95;10.80;;;7.20;99.90;;;;;;5081875;28;20042;-43
2023/01/30 03:00:22;;;;;;;12.65;9.52;;;7.30;99.90;;;;;;5080690;28;20016;-43
2023/01/30 03:03:06;;;;;;;14.05;10.30;;;7.20;99.90;;;;;;5081623;28;20031;-43
2023/01/30 03:06:05;;;;;;;11.30;9.35;;;7.30;99.90;;;;;;5081517;28;20028;-44
2023/01/30 03:08:39;;;;;;;15.13;10.07;;;7.30;99.90;;;;;;5060813;28;20113;-43
2023/01/30 03:11:08;;;;;;;12.82;8.95;;;7.30;99.90;;;;;;5078611;28;20043;-43
2023/01/30 03:13:55;;;;;;;13.43;9.43;;;7.30;99.90;;;;;;5081996;28;20028;-43
2023/01/30 03:16:34;;;;;;;13.70;9.65;;;7.30;99.90;;;;;;5081469;28;20032;-43
2023/01/30 03:19:02;;;;;;;13.32;10.13;;;7.30;99.90;;;;;;5081520;28;20047;-44
2023/01/30 03:21:27;;;;;;;11.30;9.13;;;7.30;99.90;;;;;;5080884;28;20043;-44
2023/01/30 03:23:53;;;;;;;14.48;9.80;;;7.30;99.90;;;;;;5081969;28;20384;-43
2023/01/30 03:26:26;;;;;;;14.13;8.75;;;7.30;99.90;;;;;;5081818;28;20020;-43
2023/01/30 03:28:52;;;;;;;13.65;8.30;;;7.30;99.90;;;;;;5080843;28;20085;-43
2023/01/30 03:31:18;;;;;;;15.48;7.97;;;7.30;99.90;;;;;;5081525;28;20028;-43
2023/01/30 03:33:44;;;;;;;13.30;9.27;;;7.30;99.90;;;;;;5081852;28;20016;-43
2023/01/30 03:36:10;;;;;;;12.20;8.63;;;7.30;99.90;;;;;;5080919;28;20087;-43
2023/01/30 03:38:36;;;;;;;10.40;7.85;;;7.30;99.90;;;;;;5081192;28;20044;-43
2023/01/30 03:41:03;;;;;;;12.60;7.75;;;7.30;99.90;;;;;;5081646;28;20113;-43
2023/01/30 03:43:28;;;;;;;12.95;7.57;;;7.30;99.90;;;;;;5080680;28;20032;-43
2023/01/30 03:45:54;;;;;;;12.80;7.43;;;7.30;99.90;;;;;;5081328;28;20023;-43
2023/01/30 03:48:19;;;;;;;14.43;7.82;;;7.30;99.90;;;;;;5081691;28;20020;-42
2023/01/30 03:50:45;;;;;;;13.20;7.57;;;7.30;99.90;;;;;;5080169;28;20024;-43
2023/01/30 03:53:10;;;;;;;11.00;6.95;;;7.40;99.90;;;;;;5081331;28;20119;-43
2023/01/30 03:55:36;;;;;;;11.90;6.88;;;7.40;99.90;;;;;;5080913;28;20031;-43
2023/01/30 03:58:01;;;;;;;13.32;7.07;;;7.40;99.90;;;;;;5079626;28;20044;-43
2023/01/30 04:00:27;;;;;;;9.68;7.18;;;7.40;99.90;;;;;;5081908;28;20106;-42
2023/01/30 04:02:54;;;;;;;10.27;7.88;;;7.40;99.90;;;;;;5080787;28;20093;-43
2023/01/30 04:05:19;;;;;;;10.27;7.15;;;7.40;99.90;;;;;;5081238;28;20032;-44
2023/01/30 04:07:45;;;;;;;12.60;7.55;;;7.40;99.90;;;;;;5081283;28;20028;-43
2023/01/30 04:10:14;;;;;;;10.32;7.55;;;7.40;99.90;;;;;;5081921;28;20032;-42
2023/01/30 04:12:41;;;;;;;11.07;7.13;;;7.40;99.90;;;;;;5083456;28;20434;-42
2023/01/30 04:15:07;;;;;;;12.50;7.35;;;7.40;99.90;;;;;;5086034;28;20043;-43
2023/01/30 04:17:32;;;;;;;10.02;6.75;;;7.40;99.90;;;;;;5085157;28;20361;-43
2023/01/30 04:19:58;;;;;;;15.45;8.00;;;7.40;99.90;;;;;;5085263;28;20039;-44
2023/01/30 04:22:23;;;;;;;9.70;7.22;;;7.50;99.90;;;;;;5085845;28;20732;-43
2023/01/30 04:24:52;;;;;;;11.65;7.50;;;7.50;99.90;;;;;;5084673;28;20059;-43
2023/01/30 04:27:17;;;;;;;12.88;7.55;;;7.50;99.90;;;;;;5084915;28;20024;-43
2023/01/30 04:29:43;;;;;;;11.00;7.20;;;7.50;99.90;;;;;;5085333;28;20361;-43
2023/01/30 04:32:09;;;;;;;13.10;7.57;;;7.50;99.90;;;;;;5084120;28;20491;-44
2023/01/30 04:34:34;;;;;;;11.80;6.68;;;7.50;99.90;;;;;;5084677;28;20886;-43
2023/01/30 04:37:00;;;;;;;10.73;6.88;;;7.60;99.90;;;;;;5085250;28;20051;-43
2023/01/30 04:39:25;;;;;;;12.93;6.88;;;7.60;99.90;;;;;;5084451;28;20024;-44
2023/01/30 04:41:51;;;;;;;13.52;7.05;;;7.60;99.90;;;;;;5085136;28;20577;-44
2023/01/30 04:44:16;;;;;;;8.60;6.53;;;7.60;99.90;;;;;;5084399;28;20035;-43
2023/01/30 04:46:42;;;;;;;9.45;6.68;;;7.60;99.90;;;;;;5083906;28;20053;-42
2023/01/30 04:49:09;;;;;;;13.52;7.25;;;7.70;99.90;;;;;;5084070;28;20170;-41
2023/01/30 04:51:35;;;;;;;14.38;7.60;;;7.70;99.90;;;;;;5084132;28;20089;-42
2023/01/30 04:54:00;;;;;;;10.65;6.80;;;7.70;99.90;;;;;;5083748;28;20536;-42
2023/01/30 04:56:26;;;;;;;16.90;7.22;;;7.60;99.90;;;;;;5084659;28;20705;-43
2023/01/30 04:58:51;;;;;;;15.27;6.88;;;7.70;99.90;;;;;;5084291;28;20046;-43
2023/01/30 05:01:35;;;;;;;14.27;6.47;;;7.70;99.90;;;;;;5083063;28;20036;-43
2023/01/30 05:04:02;;;;;;;11.48;5.93;;;7.70;99.90;;;;;;5074483;28;20042;-43
2023/01/30 05:06:28;;;;;;;8.35;5.50;;;7.70;99.90;;;;;;5084780;28;20032;-44
2023/01/30 05:08:55;;;;;;;9.98;5.35;;;7.70;99.90;;;;;;5083427;28;20043;-43
2023/01/30 05:11:22;;;;;;;9.43;5.78;;;7.70;99.90;;;;;;5084536;28;20028;-43
2023/01/30 05:13:48;;;;;;;12.45;7.22;;;7.80;99.90;;;;;;5084158;28;20111;-43
2023/01/30 05:16:15;;;;;;;13.10;5.50;;;7.80;99.90;;;;;;5072575;28;20110;-42
2023/01/30 05:18:42;;;;;;;9.85;5.22;;;7.80;99.90;;;;;;5084578;28;20063;-42
2023/01/30 05:21:13;;;;;;;9.25;5.00;;;7.80;99.90;;;;;;5084059;28;20016;-43
2023/01/30 05:23:39;;;;;;;6.90;5.03;;;7.80;99.90;;;;;;5082971;28;20055;-44
2023/01/30 05:26:05;;;;;;;7.53;4.22;;;7.80;99.90;;;;;;5083831;28;20115;-42
2023/01/30 05:28:31;;;;;;;13.50;4.35;;;7.90;99.90;;;;;;5083293;28;20024;-42
2023/01/30 05:31:01;;;;;;;7.75;3.92;;;7.90;99.90;;;;;;5083187;28;20031;-42
2023/01/30 05:33:27;;;;;;;10.52;4.05;;;7.90;99.90;;;;;;5084517;28;20020;-43
2023/01/30 05:35:52;;;;;;;10.38;3.53;;;7.90;99.90;;;;;;5083356;28;20048;-43
2023/01/30 05:38:18;;;;;;;7.57;3.75;;;7.90;99.90;;;;;;5084474;28;20038;-43
2023/01/30 05:40:43;;;;;;;11.27;3.97;;;7.90;99.90;;;;;;5083655;28;20031;-42
2023/01/30 05:43:09;;;;;;;10.98;3.30;;;8.00;99.90;;;;;;5083470;28;20446;-43
2023/01/30 05:45:35;;;;;;;10.80;3.15;;;8.00;99.90;;;;;;5083323;28;20533;-43
2023/01/30 05:48:01;;;;;;;9.80;3.35;;;8.00;99.90;;;;;;5083483;28;20035;-43
2023/01/30 05:50:27;;;;;;;10.00;3.40;;;8.00;99.90;;;;;;5083166;28;20012;-44
2023/01/30 05:52:52;;;;;;;11.45;2.83;;;8.00;99.90;;;;;;5084152;28;20363;-44
2023/01/30 05:55:18;;;;;;;6.50;2.47;;;8.00;99.90;;;;;;5084375;28;20016;-43
2023/01/30 05:57:44;;;;;;;12.77;2.70;;;8.00;99.90;;;;;;5083098;28;20094;-43
2023/01/30 06:00:10;;;;;;;7.68;2.90;;;8.10;99.90;;;;;;5083662;28;20031;-43
2023/01/30 06:02:36;;;;;;;9.45;2.72;;;8.00;99.90;;;;;;5083425;28;20028;-43
2023/01/30 06:05:02;;;;;;;8.32;2.85;;;8.00;99.90;;;;;;5082779;28;20025;-43
2023/01/30 06:07:28;;;;;;;9.30;2.65;;;8.00;99.90;;;;;;5083261;28;20451;-43
2023/01/30 06:09:53;;;;;;;10.20;2.65;;;7.90;99.90;;;;;;5083209;28;20043;-43
2023/01/30 06:12:19;;;;;;;8.85;2.67;;;7.90;99.90;;;;;;5082887;28;20027;-43
2023/01/30 06:14:44;;;;;;;6.65;2.15;;;7.80;99.90;;;;;;5083060;28;20043;-43
2023/01/30 06:17:10;;;;;;;10.18;2.60;;;7.70;99.90;;;;;;5082236;28;20047;-43
2023/01/30 06:19:35;;;;;;;11.65;2.67;;;7.60;99.90;;;;;;5083347;28;20024;-43
2023/01/30 06:22:02;;;;;;;8.80;2.28;;;7.60;99.90;;;;;;5082704;28;20028;-43
2023/01/30 06:24:27;;;;;;;9.43;2.67;;;7.70;99.90;;;;;;5082244;28;20081;-43
2023/01/30 06:26:53;;;;;;;10.45;2.50;;;7.70;99.90;;;;;;5082972;28;20029;-44
2023/01/30 06:29:19;;;;;;;16.13;2.85;;;7.70;99.90;;;;;;5083107;28;20491;-44
2023/01/30 06:31:44;;;;;;;9.02;2.15;;;7.70;99.90;;;;;;5082364;28;20108;-44
2023/01/30 06:34:10;;;;;;;8.20;2.10;;;7.70;99.90;;;;;;5082821;28;20036;-43
2023/01/30 06:36:36;;;;;;;9.20;2.20;;;7.70;99.90;;;;;;5081481;28;20047;-43
2023/01/30 06:39:02;;;;;;;10.30;2.28;;;7.70;99.90;;;;;;5081513;28;20069;-44
2023/01/30 06:41:27;;;;;;;10.82;2.80;;;7.70;99.90;;;;;;5081865;28;20734;-43
2023/01/30 06:43:54;;;;;;;9.60;2.45;;;7.60;99.90;;;;;;5082436;28;20482;-43
2023/01/30 06:46:20;;;;;;;12.90;2.40;;;7.60;99.90;;;;;;5081781;28;20091;-43
2023/01/30 06:48:45;;;;;;;16.80;2.85;;;7.50;99.90;;;;;;5082613;28;20565;-43
2023/01/30 06:51:11;;;;;;;18.00;2.80;;;7.50;99.90;;;;;;5082697;28;20032;-43
2023/01/30 06:53:36;;;;;;;9.82;2.78;;;7.40;99.90;;;;;;5081778;28;20657;-43
2023/01/30 06:56:02;;;;;;;12.88;3.40;;;7.40;99.90;;;;;;5082629;28;20081;-43
2023/01/30 06:58:28;;;;;;;12.02;2.67;;;7.30;99.90;;;;;;5080791;28;20028;-43
2023/01/30 07:00:53;;;;;;;14.00;2.75;;;7.30;99.90;;;;;;5081042;28;20130;-43
2023/01/30 07:03:19;;;;;;;9.18;2.40;;;7.30;99.90;;;;;;5082553;28;20785;-43
2023/01/30 07:05:46;;;;;;;16.02;3.42;;;7.20;99.90;;;;;;5078114;28;20038;-43
2023/01/30 07:08:13;;;;;;;10.13;2.00;;;7.20;99.90;;;;;;5079666;28;20051;-42
2023/01/30 07:10:40;;;;;;;13.98;2.47;;;7.10;99.90;;;;;;5080695;28;20032;-43
2023/01/30 07:13:06;;;;;;;10.93;2.20;;;7.10;99.90;;;;;;5079962;28;20046;-43
2023/01/30 07:15:32;;;;;;;12.13;2.78;;;7.10;99.90;;;;;;5079243;28;20475;-44
2023/01/30 07:17:58;;;;;;;16.23;3.13;;;7.10;99.90;;;;;;5080174;28;20120;-44
2023/01/30 07:20:23;;;;;;;11.40;2.38;;;7.00;99.90;;;;;;5081406;28;20016;-43
2023/01/30 07:22:51;;;;;;;15.73;2.50;;;7.00;99.90;;;;;;5080495;28;20099;-43
2023/01/30 07:25:18;;;;;;;13.77;3.38;;;7.00;99.90;;;;;;5080165;28;20537;-43
2023/01/30 07:27:49;;;;;;;15.80;2.60;;;7.00;99.90;;;;;;5079419;28;20032;-43
2023/01/30 07:30:16;;;;;;;11.73;2.85;;;7.00;99.90;;;;;;5076798;28;20020;-43
2023/01/30 07:32:41;;;;;;;15.35;2.95;;;6.90;99.90;;;;;;5080928;28;20832;-44
2023/01/30 07:35:07;;;;;;;14.68;2.72;;;7.00;99.90;;;;;;5079431;28;20139;-44
2023/01/30 07:37:33;;;;;;;18.50;3.00;;;7.00;99.90;;;;;;5080777;28;20024;-43
2023/01/30 07:39:58;;;;;;;23.88;4.65;;;6.90;99.90;;;;;;5080863;28;20024;-43
2023/01/30 07:42:24;;;;;;;18.92;3.10;;;7.00;99.90;;;;;;5080063;28;20275;-43
2023/01/30 07:44:49;;;;;;;17.15;3.22;;;7.00;99.90;;;;;;5080591;28;20030;-43
2023/01/30 07:47:15;;;;;;;20.38;3.97;;;7.00;99.90;;;;;;5080225;28;20063;-43
2023/01/30 07:49:40;;;;;;;16.27;3.17;;;6.90;99.90;;;;;;5080028;28;20116;-43
2023/01/30 07:52:06;;;;;;;12.32;2.95;;;6.90;99.90;;;;;;5080150;28;20474;-43
2023/01/30 07:54:31;;;;;;;18.75;3.80;;;6.90;99.90;;;;;;5080432;28;20028;-43
2023/01/30 07:56:57;;;;;;;14.98;4.15;;;6.90;99.90;;;;;;5079798;28;20036;-44
2023/01/30 07:59:22;;;;;;;16.00;2.88;;;6.90;99.90;;;;;;5081093;28;20328;-43
2023/01/30 08:01:48;;;;;;;20.13;3.63;;;6.80;99.90;;;;;;5080813;28;20028;-43
2023/01/30 08:04:13;;;;;;;13.85;2.90;;;6.80;99.90;;;;;;5079756;28;20059;-43
2023/01/30 08:06:39;;;;;;;19.08;3.38;;;6.80;99.90;;;;;;5080526;28;20048;-43
2023/01/30 08:09:05;;;;;;;17.05;3.53;;;6.80;99.90;;;;;;5080393;28;20063;-44
2023/01/30 08:11:31;;;;;;;18.40;3.90;;;6.80;99.90;;;;;;5079748;28;20353;-43
2023/01/30 08:13:56;;;;;;;17.95;3.20;;;6.80;99.90;;;;;;5080238;28;20497;-44
2023/01/30 08:16:22;;;;;;;17.90;2.88;;;6.80;99.90;;;;;;5080287;28;20554;-43
2023/01/30 08:18:47;;;;;;;12.75;3.67;;;6.80;99.90;;;;;;5080111;28;20563;-43
2023/01/30 08:21:13;;;;;;;13.10;2.58;;;6.80;99.90;;;;;;5080072;28;20543;-44
2023/01/30 08:23:38;;;;;;;17.02;3.13;;;6.80;99.90;;;;;;5080625;28;20538;-44
2023/01/30 08:26:05;;;;;;;14.30;2.72;;;6.80;99.90;;;;;;5078873;28;20661;-44
2023/01/30 08:28:31;;;;;;;21.05;3.50;;;6.90;99.90;;;;;;5080210;28;20027;-44
2023/01/30 08:30:57;;;;;;;18.30;3.45;;;6.90;99.90;;;;;;5079650;28;20126;-44
2023/01/30 08:33:23;;;;;;;15.90;3.38;;;6.90;99.90;;;;;;5080524;28;20108;-44
2023/01/30 08:35:49;;;;;;;13.70;2.90;;;7.00;99.90;;;;;;5079888;28;20060;-44
2023/01/30 08:38:16;;;;;;;15.73;3.35;;;7.00;99.90;;;;;;5079820;28;20055;-44
2023/01/30 08:40:42;;;;;;;17.35;3.67;;;7.00;99.90;;;;;;5080048;28;20020;-44
2023/01/30 08:43:07;;;;;;;15.18;2.83;;;7.00;99.90;;;;;;5080536;28;20024;-44
2023/01/30 08:45:34;;;;;;;13.60;3.08;;;7.10;99.90;;;;;;5079333;28;20038;-43
2023/01/30 08:48:01;;;;;;;14.43;2.83;;;7.10;99.90;;;;;;5078024;28;20024;-43
2023/01/30 08:50:27;;;;;;;17.65;2.95;;;7.10;99.90;;;;;;5080861;28;20024;-44
2023/01/30 08:52:53;;;;;;;19.30;3.65;;;7.10;99.90;;;;;;5079061;28;20454;-43
2023/01/30 08:55:19;;;;;;;20.00;4.53;;;7.20;99.90;;;;;;5080698;28;20114;-42
2023/01/30 08:57:45;;;;;;;17.10;3.38;;;7.20;99.90;;;;;;5079219;28;20046;-43
2023/01/30 09:00:11;;;;;;;14.25;3.17;;;7.30;99.90;;;;;;5082944;28;20020;-44
2023/01/30 09:02:37;;;;;;;19.50;3.35;;;7.30;99.90;;;;;;5083606;28;20081;-43
2023/01/30 09:05:04;;;;;;;16.95;3.17;;;7.40;99.90;;;;;;5083176;28;20032;-44
2023/01/30 09:07:29;;;;;;;16.58;3.60;;;7.40;99.90;;;;;;5082594;28;20016;-43
2023/01/30 09:09:55;;;;;;;16.55;3.05;;;7.60;99.90;;;;;;5083175;28;20035;-43
2023/01/30 09:12:21;;;;;;;17.65;3.10;;;7.70;99.90;;;;;;5083174;28;20022;-43
2023/01/30 09:14:46;;;;;;;15.93;3.35;;;7.80;99.90;;;;;;5082290;28;20039;-43
2023/01/30 09:17:12;;;;;;;14.57;2.95;;;7.90;99.90;;;;;;5083247;28;20075;-43
2023/01/30 09:19:38;;;;;;;15.55;2.72;;;8.00;99.90;;;;;;5083355;28;20157;-43
2023/01/30 09:22:03;;;;;;;16.95;3.50;;;8.00;99.90;;;;;;5082469;28;20020;-42
2023/01/30 09:24:29;;;;;;;14.85;3.15;;;8.10;99.90;;;;;;5082930;28;20041;-43
2023/01/30 09:26:57;;;;;;;16.60;4.32;;;8.10;99.90;;;;;;5082609;28;20052;-43
2023/01/30 09:29:23;;;;;;;17.70;4.28;;;8.10;99.90;;;;;;5083446;28;20107;-43
2023/01/30 09:31:49;;;;;;;11.80;2.60;;;8.10;99.90;;;;;;5082156;28;20035;-43
2023/01/30 09:34:15;;;;;;;13.80;2.78;;;8.10;99.90;;;;;;5082780;28;20024;-44
2023/01/30 09:36:41;;;;;;;13.15;2.78;;;8.20;99.90;;;;;;5082807;28;20043;-43
2023/01/30 09:39:06;;;;;;;14.45;3.30;;;8.20;99.90;;;;;;5083175;28;20024;-43
2023/01/30 09:41:52;;;;;;;17.25;3.40;;;8.20;99.90;;;;;;5082714;28;20481;-42
2023/01/30 09:44:36;;;;;;;14.65;3.13;;;8.20;99.90;;;;;;5083674;28;20028;-43
2023/01/30 09:47:09;;;;;;;15.40;2.80;;;8.20;99.90;;;;;;5082977;28;20032;-44
2023/01/30 09:49:38;;;;;;;13.05;2.65;;;8.20;99.90;;;;;;5081915;28;20118;-44
2023/01/30 09:52:55;;;;;;;15.57;2.83;;;8.20;99.90;;;;;;5083079;28;20028;-44
2023/01/30 09:55:28;;;;;;;9.60;2.55;;;8.20;99.90;;;;;;5064667;28;20107;-44
2023/01/30 09:57:55;;;;;;;;;;;8.20;99.90;;;;;;5082699;28;20036;-43
2023/01/30 10:00:34;;;;;;;10.10;2.58;;;8.20;99.90;;;;;;5082718;28;20060;-44
2023/01/30 10:03:17;;;;;;;12.02;2.88;;;8.20;99.90;;;;;;5082092;28;20054;-43
2023/01/30 10:05:54;;;;;;;13.95;2.47;;;8.30;99.90;;;;;;5081213;28;20036;-44
2023/01/30 10:08:35;;;;;;;13.73;3.13;;;8.30;99.90;;;;;;5082222;28;20545;-43
2023/01/30 10:11:13;;;;;;;12.50;2.75;;;8.30;99.90;;;;;;5080752;28;20038;-43
2023/01/30 10:14:05;;;;;;;12.60;3.17;;;8.30;99.90;;;;;;5082883;28;20028;-42
2023/01/30 10:16:37;;;;;;;13.43;3.22;;;8.30;99.90;;;;;;5072464;28;20028;-43
2023/01/30 10:19:28;;;;;;;13.80;3.10;;;8.40;99.90;;;;;;5082272;28;20037;-43
2023/01/30 10:22:15;;;;;;;13.63;2.45;;;8.40;99.90;;;;;;5082440;28;20024;-43
2023/01/30 10:25:17;;;;;;;14.30;2.65;;;8.50;99.90;;;;;;5081958;28;20066;-42
2023/01/30 10:27:55;;;;;;;13.40;3.10;;;8.50;99.90;;;;;;5082519;28;20062;-44
2023/01/30 10:30:21;;;;;;;16.23;2.80;;;8.50;99.90;;;;;;5082000;28;20431;-43
2023/01/30 10:32:55;;;;;;;14.73;2.60;;;8.50;99.90;;;;;;5082416;28;20048;-43
2023/01/30 10:35:25;;;;;;;12.07;2.72;;;8.50;99.90;;;;;;5081589;28;20044;-43
2023/01/30 10:38:02;;;;;;;11.18;2.70;;;8.40;99.90;;;;;;5081003;28;20044;-44
2023/01/30 10:40:50;;;;;;;16.63;4.32;;;8.40;99.90;;;;;;5082136;28;20135;-43
2023/01/30 10:43:31;;;;;;;12.73;3.45;;;8.40;99.90;;;;;;5081794;28;20043;-43
2023/01/30 10:46:09;;;;;;;10.93;2.58;;;8.40;99.90;;;;;;5080490;28;20020;-43
2023/01/30 10:48:57;;;;;;;13.25;2.95;;;8.40;99.90;;;;;;5081552;28;20036;-43
2023/01/30 10:51:40;;;;;;;14.30;3.35;;;8.40;99.90;;;;;;5081681;28;20031;-43
2023/01/30 10:54:16;;;;;;;12.68;2.67;;;8.50;99.90;;;;;;5081514;28;20384;-44
2023/01/30 10:57:09;;;;;;;12.00;2.85;;;8.50;99.90;;;;;;5081058;28;20027;-43
2023/01/30 10:59:58;;;;;;;8.70;2.70;;;8.50;99.90;;;;;;5080992;28;20085;-43
2023/01/30 11:02:54;;;;;;;11.30;2.72;;;8.60;99.90;;;;;;5078571;28;20024;-44
2023/01/30 11:05:49;;;;;;;13.45;2.83;;;8.60;99.90;;;;;;5082195;28;20069;-43
2023/01/30 11:08:21;;;;;;;12.05;2.75;;;8.60;99.90;;;;;;5072279;28;20468;-43
2023/01/30 11:10:47;;;;;;;13.35;3.47;;;8.70;99.90;;;;;;5080891;28;20464;-44
2023/01/30 11:13:18;;;;;;;14.30;2.92;;;8.70;99.90;;;;;;5080703;28;20031;-43
2023/01/30 11:15:47;;;;;;;15.32;3.25;;;8.80;99.90;;;;;;5081790;28;20019;-44
2023/01/30 11:18:13;;;;;;;14.20;3.03;;;8.70;99.90;;;;;;5081600;28;20042;-44
2023/01/30 11:20:43;;;;;;;14.00;2.50;;;8.80;99.90;;;;;;5080737;28;20035;-43
2023/01/30 11:23:24;;;;;;;9.40;2.55;;;8.80;99.90;;;;;;5080409;28;20087;-43
2023/01/30 11:25:56;;;;;;;9.80;2.72;;;8.90;99.90;;;;;;5081100;28;20024;-44
2023/01/30 11:28:26;;;;;;;13.75;3.10;;;9.00;99.90;;;;;;5080638;28;20031;-43
2023/01/30 11:30:57;;;;;;;14.80;2.78;;;9.00;99.90;;;;;;5081211;28;20048;-43
2023/01/30 11:33:34;;;;;;;13.40;2.67;;;9.10;99.90;;;;;;5078208;28;20035;-43
2023/01/30 11:36:05;;;;;;;15.68;3.15;;;9.10;99.90;;;;;;5080430;28;20147;-43
2023/01/30 11:38:33;;;;;;;13.93;2.97;;;9.20;99.90;;;;;;5080676;28;20043;-43
2023/01/30 11:41:05;;;;;;;9.60;2.50;;;9.30;99.90;;;;;;5080915;28;20077;-44
2023/01/30 11:43:32;;;;;;;16.30;3.10;;;9.30;99.90;;;;;;5081007;28;20718;-43
2023/01/30 11:45:59;;;;;;;11.85;2.90;;;9.40;99.90;;;;;;5081161;28;20020;-43
2023/01/30 11:48:31;;;;;;;16.70;3.20;;;9.40;99.90;;;;;;5079389;28;20020;-44
2023/01/30 11:51:03;;;;;;;12.20;2.90;;;9.40;99.90;;;;;;5080813;28;20016;-44
2023/01/30 11:53:37;;;;;;;9.63;2.38;;;9.40;99.90;;;;;;5080360;28;20035;-41
2023/01/30 11:56:12;;;;;;;15.65;2.90;;;9.40;99.90;;;;;;5079617;28;20032;-44
2023/01/30 11:58:39;;;;;;;8.70;2.30;;;9.40;99.90;;;;;;5079905;28;20085;-43
2023/01/30 12:01:08;;;;;;;10.32;2.63;;;9.50;99.90;;;;;;5080771;28;20031;-43
2023/01/30 12:03:44;;;;;;;12.80;3.35;;;9.50;99.90;;;;;;5084265;28;20099;-44
2023/01/30 12:06:09;;;;;;;19.38;3.47;;;9.50;99.90;;;;;;5079430;28;20016;-44
2023/01/30 12:08:38;;;;;;;18.25;3.72;;;9.60;99.90;;;;;;5079612;28;20028;-44
2023/01/30 12:11:25;;;;;;;15.15;2.97;;;9.50;99.90;;;;;;5079381;28;20074;-43
2023/01/30 12:14:10;;;;;;;15.30;3.20;;;9.60;99.90;;;;;;5080477;28;20032;-44
2023/01/30 12:16:56;;;;;;;16.55;4.03;;;9.60;99.90;;;;;;5058963;28;20026;-44
2023/01/30 12:19:38;;;;;;;12.48;3.30;;;9.60;99.90;;;;;;5077526;28;20040;-44
2023/01/30 12:22:30;;;;;;;10.73;2.83;;;9.60;99.90;;;;;;5079418;28;20136;-44
2023/01/30 12:25:00;;;;;;;16.33;3.55;;;9.60;99.90;;;;;;5077437;28;20463;-43
2023/01/30 12:27:43;;;;;;;15.63;3.15;;;9.60;99.90;;;;;;5079105;28;20103;-43
2023/01/30 12:30:40;;;;;;;7.78;2.65;;;9.60;99.90;;;;;;5076950;28;20103;-43
2023/01/30 12:33:11;;;;;;;13.70;2.90;;;9.60;99.90;;;;;;5080188;28;20039;-44
2023/01/30 12:36:23;;;;;;;22.65;3.80;;;9.60;99.90;;;;;;5081962;28;20117;-43
2023/01/30 12:39:23;;;;;;;11.35;3.05;;;9.50;99.90;;;;;;5000389;28;20038;-43
2023/01/30 12:42:16;;;;;;;14.52;3.03;;;9.50;99.90;;;;;;5085412;28;20036;-43
2023/01/30 12:45:05;;;;;;;16.25;2.92;;;9.40;99.90;;;;;;5083457;28;20020;-44
2023/01/30 12:47:48;;;;;;;8.15;2.40;;;9.50;99.90;;;;;;5083785;28;20440;-43
2023/01/30 12:50:32;;;;;;;19.45;3.40;;;9.50;99.90;;;;;;5083375;28;20024;-48
2023/01/30 12:53:19;;;;;;;17.27;3.75;;;9.50;99.90;;;;;;5062588;28;20166;-44
2023/01/30 12:56:18;;;;;;;12.13;2.70;;;9.40;99.90;;;;;;5081949;28;20036;-45
2023/01/30 12:59:00;;;;;;;14.57;3.20;;;9.50;99.90;;;;;;5083287;28;20142;-44
2023/01/30 13:02:17;;;;;;;12.45;3.22;;;9.40;99.90;;;;;;5081626;28;20028;-44
2023/01/30 13:04:53;;;;;;;13.98;2.90;;;9.40;99.90;;;;;;4999964;28;20029;-44
2023/01/30 13:07:46;;;;;;;18.10;3.58;;;9.40;99.90;;;;;;4999686;28;20130;-44
2023/01/30 13:10:18;;;;;;;;;;;9.40;99.90;;;;;;5060280;28;20078;-44